WXM80 ListenWXM80 Stop

You find our weather info also at:

UK Metoffice

WeatherCloud

Weather Underground

Northeastern Weather Network

AWEKAS

Citizen Weather Observer Program (CWOP)

HAMweather, WeatherForYou, PWS Weather


Weather Underground History page Text

Daily Summary for December 4, 2017 Units:  Both    English   Metric
« Previous Day
Next Day »
Daily Weekly Monthly Yearly Custom
  High: Low: Average:
Temperature: 48.7 °F /  9.3 °C 33.8 °F /  1 °C 41.5 °F /  5.3 °C
Dew Point: 43.0 °F /  6.1 °C 32.3 °F /  0.2 °C 38.1 °F /  3.4 °C
Humidity: 97 % 79 % 88 %
Wind Speed: 5.6 mph /  9 km/h - 1.2 mph /  1.9 km/h
Wind Gust: 9.2 mph /  14.8 km/h - -
Wind:- - East
Pressure: 30.46 in /  1031.4 hPa 30.31 in /  1026.3 hPa -
Precipitation: 0.00 in /  0 mm    
Historical Graphs
 
 
Tabular Data for December 4, 2017
Time Temperature Dew Point Pressure Wind Wind Speed Wind Gust Humidity Rainfall Rate (Hourly)
00:04 38.2 °F /  3.4 °C 35.8 °F /  2.1 °C 30.31 in /  1026.3 hPa Calm     91 % 0.00 in /  0 mm
00:09 38.0 °F /  3.3 °C 35.6 °F /  2 °C 30.31 in /  1026.3 hPa Calm     91 % 0.00 in /  0 mm
00:14 37.9 °F /  3.3 °C 35.5 °F /  1.9 °C 30.31 in /  1026.3 hPa Calm     91 % 0.00 in /  0 mm
00:19 37.7 °F /  3.2 °C 35.3 °F /  1.8 °C 30.31 in /  1026.3 hPa Calm   1.0 mph /  1.6 km/h 91 % 0.00 in /  0 mm
00:20 37.7 °F /  3.2 °C 35.3 °F /  1.8 °C 30.31 in /  1026.3 hPa ENE 0.3 mph /  0.5 km/h 1.2 mph /  1.9 km/h 91 % 0.00 in /  0 mm
00:25 37.6 °F /  3.1 °C 35.2 °F /  1.8 °C 30.31 in /  1026.3 hPa Calm     91 % 0.00 in /  0 mm
00:30 37.4 °F /  3 °C 35.0 °F /  1.7 °C 30.31 in /  1026.3 hPa Calm     91 % 0.00 in /  0 mm
00:35 37.3 °F /  2.9 °C 34.9 °F /  1.6 °C 30.31 in /  1026.3 hPa ENE 0.5 mph /  0.8 km/h 1.2 mph /  1.9 km/h 91 % 0.00 in /  0 mm
00:40 37.2 °F /  2.9 °C 35.1 °F /  1.7 °C 30.31 in /  1026.3 hPa Calm     92 % 0.00 in /  0 mm
00:45 37.1 °F /  2.8 °C 35.0 °F /  1.7 °C 30.31 in /  1026.3 hPa Calm     92 % 0.00 in /  0 mm
00:50 37.0 °F /  2.8 °C 34.9 °F /  1.6 °C 30.31 in /  1026.3 hPa Calm     92 % 0.00 in /  0 mm
00:55 36.9 °F /  2.7 °C 34.8 °F /  1.6 °C 30.31 in /  1026.3 hPa Calm     92 % 0.00 in /  0 mm
01:00 36.8 °F /  2.7 °C 34.7 °F /  1.5 °C 30.31 in /  1026.3 hPa Calm     92 % 0.00 in /  0 mm
01:05 36.8 °F /  2.7 °C 34.7 °F /  1.5 °C 30.31 in /  1026.3 hPa Calm   1.2 mph /  1.9 km/h 92 % 0.00 in /  0 mm
01:10 36.7 °F /  2.6 °C 34.6 °F /  1.4 °C 30.31 in /  1026.3 hPa ENE 0.3 mph /  0.5 km/h 1.2 mph /  1.9 km/h 92 % 0.00 in /  0 mm
01:15 36.7 °F /  2.6 °C 34.6 °F /  1.4 °C 30.31 in /  1026.3 hPa Calm     92 % 0.00 in /  0 mm
01:20 36.8 °F /  2.7 °C 34.7 °F /  1.5 °C 30.31 in /  1026.3 hPa Calm     92 % 0.00 in /  0 mm
01:25 36.8 °F /  2.7 °C 34.7 °F /  1.5 °C 30.31 in /  1026.3 hPa Calm     92 % 0.00 in /  0 mm
01:30 36.8 °F /  2.7 °C 35.0 °F /  1.7 °C 30.31 in /  1026.3 hPa Calm     93 % 0.00 in /  0 mm
01:35 36.8 °F /  2.7 °C 35.0 °F /  1.7 °C 30.31 in /  1026.3 hPa Calm     93 % 0.00 in /  0 mm
01:40 36.8 °F /  2.7 °C 35.0 °F /  1.7 °C 30.31 in /  1026.3 hPa Calm     93 % 0.00 in /  0 mm
01:45 36.7 °F /  2.6 °C 34.9 °F /  1.6 °C 30.32 in /  1026.6 hPa Calm   1.2 mph /  1.9 km/h 93 % 0.00 in /  0 mm
01:50 36.7 °F /  2.6 °C 34.9 °F /  1.6 °C 30.32 in /  1026.6 hPa Calm     93 % 0.00 in /  0 mm
01:55 36.7 °F /  2.6 °C 34.9 °F /  1.6 °C 30.32 in /  1026.6 hPa Calm     93 % 0.00 in /  0 mm
02:00 36.6 °F /  2.6 °C 34.8 °F /  1.6 °C 30.32 in /  1026.6 hPa Calm     93 % 0.00 in /  0 mm
02:05 36.6 °F /  2.6 °C 34.8 °F /  1.6 °C 30.32 in /  1026.6 hPa Calm     93 % 0.00 in /  0 mm
02:10 36.5 °F /  2.5 °C 34.7 °F /  1.5 °C 30.32 in /  1026.6 hPa Calm   1.2 mph /  1.9 km/h 93 % 0.00 in /  0 mm
02:15 36.4 °F /  2.4 °C 34.6 °F /  1.4 °C 30.32 in /  1026.6 hPa NNE 0.2 mph /  0.3 km/h 1.2 mph /  1.9 km/h 93 % 0.00 in /  0 mm
02:20 36.4 °F /  2.4 °C 34.6 °F /  1.4 °C 30.32 in /  1026.6 hPa Calm     93 % 0.00 in /  0 mm
02:25 36.3 °F /  2.4 °C 34.5 °F /  1.4 °C 30.32 in /  1026.6 hPa Calm     93 % 0.00 in /  0 mm
02:30 36.3 °F /  2.4 °C 34.5 °F /  1.4 °C 30.32 in /  1026.6 hPa Calm     93 % 0.00 in /  0 mm
02:35 36.3 °F /  2.4 °C 34.5 °F /  1.4 °C 30.33 in /  1027 hPa NE 0.7 mph /  1.1 km/h 3.5 mph /  5.6 km/h 93 % 0.00 in /  0 mm
02:40 36.3 °F /  2.4 °C 34.5 °F /  1.4 °C 30.33 in /  1027 hPa Calm     93 % 0.00 in /  0 mm
02:45 36.4 °F /  2.4 °C 34.6 °F /  1.4 °C 30.33 in /  1027 hPa Calm     93 % 0.00 in /  0 mm
02:50 36.4 °F /  2.4 °C 34.8 °F /  1.6 °C 30.33 in /  1027 hPa Calm     94 % 0.00 in /  0 mm
02:55 36.4 °F /  2.4 °C 34.8 °F /  1.6 °C 30.33 in /  1027 hPa Calm     94 % 0.00 in /  0 mm
03:00 36.4 °F /  2.4 °C 34.8 °F /  1.6 °C 30.33 in /  1027 hPa Calm     94 % 0.00 in /  0 mm
03:05 36.4 °F /  2.4 °C 34.8 °F /  1.6 °C 30.34 in /  1027.3 hPa Calm     94 % 0.00 in /  0 mm
03:10 36.4 °F /  2.4 °C 34.8 °F /  1.6 °C 30.33 in /  1027 hPa Calm     94 % 0.00 in /  0 mm
03:15 36.4 °F /  2.4 °C 34.8 °F /  1.6 °C 30.34 in /  1027.3 hPa Calm     94 % 0.00 in /  0 mm
03:20 36.3 °F /  2.4 °C 34.7 °F /  1.5 °C 30.33 in /  1027 hPa Calm     94 % 0.00 in /  0 mm
03:25 36.3 °F /  2.4 °C 34.7 °F /  1.5 °C 30.33 in /  1027 hPa Calm     94 % 0.00 in /  0 mm
03:30 36.3 °F /  2.4 °C 34.7 °F /  1.5 °C 30.34 in /  1027.3 hPa NE 0.2 mph /  0.3 km/h 1.0 mph /  1.6 km/h 94 % 0.00 in /  0 mm
03:35 36.2 °F /  2.3 °C 34.6 °F /  1.4 °C 30.34 in /  1027.3 hPa Calm     94 % 0.00 in /  0 mm
03:40 36.1 °F /  2.3 °C 34.5 °F /  1.4 °C 30.34 in /  1027.3 hPa Calm     94 % 0.00 in /  0 mm
03:45 36.1 °F /  2.3 °C 34.5 °F /  1.4 °C 30.34 in /  1027.3 hPa Calm     94 % 0.00 in /  0 mm
03:50 36.1 °F /  2.3 °C 34.5 °F /  1.4 °C 30.35 in /  1027.7 hPa Calm     94 % 0.00 in /  0 mm
03:55 36.1 °F /  2.3 °C 34.5 °F /  1.4 °C 30.36 in /  1028 hPa NE 0.9 mph /  1.4 km/h 1.2 mph /  1.9 km/h 94 % 0.00 in /  0 mm
03:57 36.1 °F /  2.3 °C 34.5 °F /  1.4 °C 30.36 in /  1028 hPa NE 0.7 mph /  1.1 km/h 1.2 mph /  1.9 km/h 94 % 0.00 in /  0 mm
04:02 36.1 °F /  2.3 °C 34.5 °F /  1.4 °C 30.35 in /  1027.7 hPa Calm     94 % 0.00 in /  0 mm
04:07 36.1 °F /  2.3 °C 34.5 °F /  1.4 °C 30.35 in /  1027.7 hPa NE 0.3 mph /  0.5 km/h 1.2 mph /  1.9 km/h 94 % 0.00 in /  0 mm
04:13 36.0 °F /  2.2 °C 34.4 °F /  1.3 °C 30.35 in /  1027.7 hPa Calm     94 % 0.00 in /  0 mm
04:18 36.0 °F /  2.2 °C 34.4 °F /  1.3 °C 30.35 in /  1027.7 hPa Calm     94 % 0.00 in /  0 mm
04:23 36.0 °F /  2.2 °C 34.4 °F /  1.3 °C 30.35 in /  1027.7 hPa Calm     94 % 0.00 in /  0 mm
04:28 35.9 °F /  2.2 °C 34.3 °F /  1.3 °C 30.35 in /  1027.7 hPa Calm     94 % 0.00 in /  0 mm
04:33 35.8 °F /  2.1 °C 34.2 °F /  1.2 °C 30.35 in /  1027.7 hPa NE 0.1 mph /  0.2 km/h 1.2 mph /  1.9 km/h 94 % 0.00 in /  0 mm
04:38 35.7 °F /  2.1 °C 34.1 °F /  1.2 °C 30.35 in /  1027.7 hPa Calm     94 % 0.00 in /  0 mm
04:43 35.5 °F /  1.9 °C 33.9 °F /  1.1 °C 30.35 in /  1027.7 hPa Calm     94 % 0.00 in /  0 mm
04:48 35.4 °F /  1.9 °C 33.8 °F /  1 °C 30.35 in /  1027.7 hPa Calm   1.2 mph /  1.9 km/h 94 % 0.00 in /  0 mm
04:53 35.2 °F /  1.8 °C 33.6 °F /  0.9 °C 30.35 in /  1027.7 hPa Calm     94 % 0.00 in /  0 mm
04:58 35.1 °F /  1.7 °C 33.5 °F /  0.8 °C 30.36 in /  1028 hPa Calm     94 % 0.00 in /  0 mm
05:03 35.1 °F /  1.7 °C 33.5 °F /  0.8 °C 30.36 in /  1028 hPa Calm     94 % 0.00 in /  0 mm
05:08 35.0 °F /  1.7 °C 33.4 °F /  0.8 °C 30.36 in /  1028 hPa Calm     94 % 0.00 in /  0 mm
05:13 35.0 °F /  1.7 °C 33.4 °F /  0.8 °C 30.36 in /  1028 hPa Calm     94 % 0.00 in /  0 mm
05:18 34.9 °F /  1.6 °C 33.3 °F /  0.7 °C 30.36 in /  1028 hPa Calm     94 % 0.00 in /  0 mm
05:23 34.8 °F /  1.6 °C 33.2 °F /  0.7 °C 30.37 in /  1028.3 hPa Calm     94 % 0.00 in /  0 mm
05:28 34.7 °F /  1.5 °C 33.2 °F /  0.7 °C 30.37 in /  1028.3 hPa NE 0.3 mph /  0.5 km/h 1.2 mph /  1.9 km/h 94 % 0.00 in /  0 mm
05:33 34.6 °F /  1.4 °C 33.1 °F /  0.6 °C 30.36 in /  1028 hPa Calm     94 % 0.00 in /  0 mm
05:38 34.5 °F /  1.4 °C 33.0 °F /  0.6 °C 30.37 in /  1028.3 hPa Calm     94 % 0.00 in /  0 mm
05:43 34.4 °F /  1.3 °C 32.9 °F /  0.5 °C 30.37 in /  1028.3 hPa Calm     94 % 0.00 in /  0 mm
05:49 34.4 °F /  1.3 °C 32.9 °F /  0.5 °C 30.37 in /  1028.3 hPa Calm     94 % 0.00 in /  0 mm
05:53 34.4 °F /  1.3 °C 32.9 °F /  0.5 °C 30.37 in /  1028.3 hPa Calm     94 % 0.00 in /  0 mm
05:58 34.4 °F /  1.3 °C 32.9 °F /  0.5 °C 30.38 in /  1028.7 hPa Calm     94 % 0.00 in /  0 mm
06:04 34.3 °F /  1.3 °C 32.8 °F /  0.4 °C 30.38 in /  1028.7 hPa Calm     94 % 0.00 in /  0 mm
06:09 34.3 °F /  1.3 °C 32.8 °F /  0.4 °C 30.38 in /  1028.7 hPa Calm     94 % 0.00 in /  0 mm
06:14 34.3 °F /  1.3 °C 32.8 °F /  0.4 °C 30.38 in /  1028.7 hPa Calm     94 % 0.00 in /  0 mm
06:19 34.3 °F /  1.3 °C 32.8 °F /  0.4 °C 30.38 in /  1028.7 hPa Calm     94 % 0.00 in /  0 mm
06:24 34.2 °F /  1.2 °C 32.7 °F /  0.4 °C 30.38 in /  1028.7 hPa Calm     94 % 0.00 in /  0 mm
06:29 34.2 °F /  1.2 °C 32.7 °F /  0.4 °C 30.39 in /  1029 hPa Calm     94 % 0.00 in /  0 mm
06:34 34.1 °F /  1.2 °C 32.6 °F /  0.3 °C 30.39 in /  1029 hPa Calm     94 % 0.00 in /  0 mm
06:39 34.0 °F /  1.1 °C 32.5 °F /  0.3 °C 30.39 in /  1029 hPa Calm     94 % 0.00 in /  0 mm
06:40 34.0 °F /  1.1 °C 32.5 °F /  0.3 °C 30.39 in /  1029 hPa Calm     94 % 0.00 in /  0 mm
06:45 33.9 °F /  1.1 °C 32.4 °F /  0.2 °C 30.39 in /  1029 hPa Calm     94 % 0.00 in /  0 mm
06:50 33.9 °F /  1.1 °C 32.4 °F /  0.2 °C 30.40 in /  1029.3 hPa Calm     94 % 0.00 in /  0 mm
06:55 33.8 °F /  1 °C 32.3 °F /  0.2 °C 30.40 in /  1029.3 hPa Calm     94 % 0.00 in /  0 mm
07:00 33.8 °F /  1 °C 32.3 °F /  0.2 °C 30.40 in /  1029.3 hPa Calm     94 % 0.00 in /  0 mm
07:05 33.9 °F /  1.1 °C 32.4 °F /  0.2 °C 30.40 in /  1029.3 hPa Calm     94 % 0.00 in /  0 mm
07:10 33.9 °F /  1.1 °C 32.4 °F /  0.2 °C 30.40 in /  1029.3 hPa Calm     94 % 0.00 in /  0 mm
07:15 34.0 °F /  1.1 °C 32.5 °F /  0.3 °C 30.41 in /  1029.7 hPa Calm     94 % 0.00 in /  0 mm
07:20 34.0 °F /  1.1 °C 32.7 °F /  0.4 °C 30.41 in /  1029.7 hPa Calm     95 % 0.00 in /  0 mm
07:25 34.1 °F /  1.2 °C 32.8 °F /  0.4 °C 30.41 in /  1029.7 hPa Calm     95 % 0.00 in /  0 mm
07:30 34.2 °F /  1.2 °C 32.9 °F /  0.5 °C 30.42 in /  1030 hPa Calm     95 % 0.00 in /  0 mm
07:35 34.2 °F /  1.2 °C 32.9 °F /  0.5 °C 30.42 in /  1030 hPa Calm     95 % 0.00 in /  0 mm
07:40 34.3 °F /  1.3 °C 33.0 °F /  0.6 °C 30.43 in /  1030.4 hPa Calm     95 % 0.00 in /  0 mm
07:45 34.3 °F /  1.3 °C 33.0 °F /  0.6 °C 30.43 in /  1030.4 hPa Calm     95 % 0.00 in /  0 mm
07:50 34.4 °F /  1.3 °C 33.1 °F /  0.6 °C 30.43 in /  1030.4 hPa Calm     95 % 0.00 in /  0 mm
07:55 34.5 °F /  1.4 °C 33.2 °F /  0.7 °C 30.43 in /  1030.4 hPa Calm     95 % 0.00 in /  0 mm
08:00 34.6 °F /  1.4 °C 33.3 °F /  0.7 °C 30.43 in /  1030.4 hPa Calm     95 % 0.00 in /  0 mm
08:05 34.7 °F /  1.5 °C 33.4 °F /  0.8 °C 30.43 in /  1030.4 hPa Calm     95 % 0.00 in /  0 mm
08:10 35.0 °F /  1.7 °C 33.7 °F /  0.9 °C 30.43 in /  1030.4 hPa Calm     95 % 0.00 in /  0 mm
08:15 35.2 °F /  1.8 °C 33.9 °F /  1.1 °C 30.44 in /  1030.7 hPa Calm   1.2 mph /  1.9 km/h 95 % 0.00 in /  0 mm
08:20 35.7 °F /  2.1 °C 34.7 °F /  1.5 °C 30.44 in /  1030.7 hPa ENE 0.5 mph /  0.8 km/h 2.3 mph /  3.7 km/h 96 % 0.00 in /  0 mm
08:25 36.1 °F /  2.3 °C 35.1 °F /  1.7 °C 30.44 in /  1030.7 hPa ENE 1.2 mph /  1.9 km/h 3.5 mph /  5.6 km/h 96 % 0.00 in /  0 mm
08:30 36.9 °F /  2.7 °C 35.9 °F /  2.2 °C 30.44 in /  1030.7 hPa ENE 2.2 mph /  3.5 km/h 3.5 mph /  5.6 km/h 96 % 0.00 in /  0 mm
08:35 38.3 °F /  3.5 °C 37.5 °F /  3.1 °C 30.44 in /  1030.7 hPa ENE 2.5 mph /  4 km/h 4.0 mph /  6.4 km/h 97 % 0.00 in /  0 mm
08:40 39.4 °F /  4.1 °C 38.6 °F /  3.7 °C 30.44 in /  1030.7 hPa ENE 3.7 mph /  6 km/h 4.6 mph /  7.4 km/h 97 % 0.00 in /  0 mm
08:45 40.1 °F /  4.5 °C 39.3 °F /  4.1 °C 30.44 in /  1030.7 hPa ENE 5.6 mph /  9 km/h 9.2 mph /  14.8 km/h 97 % 0.00 in /  0 mm
08:50 40.6 °F /  4.8 °C 39.8 °F /  4.3 °C 30.44 in /  1030.7 hPa NE 5.0 mph /  8 km/h 6.9 mph /  11.1 km/h 97 % 0.00 in /  0 mm
08:55 41.1 °F /  5.1 °C 40.3 °F /  4.6 °C 30.45 in /  1031 hPa NE 3.2 mph /  5.1 km/h 5.8 mph /  9.3 km/h 97 % 0.00 in /  0 mm
09:00 41.5 °F /  5.3 °C 40.7 °F /  4.8 °C 30.45 in /  1031 hPa ENE 5.0 mph /  8 km/h 7.0 mph /  11.3 km/h 97 % 0.00 in /  0 mm
09:05 41.9 °F /  5.5 °C 41.1 °F /  5.1 °C 30.45 in /  1031 hPa ENE 4.6 mph /  7.4 km/h 8.1 mph /  13 km/h 97 % 0.00 in /  0 mm
09:10 42.2 °F /  5.7 °C 41.1 °F /  5.1 °C 30.45 in /  1031 hPa ENE 5.0 mph /  8 km/h 6.9 mph /  11.1 km/h 96 % 0.00 in /  0 mm
09:15 42.6 °F /  5.9 °C 41.3 °F /  5.2 °C 30.45 in /  1031 hPa ENE 4.2 mph /  6.8 km/h 5.8 mph /  9.3 km/h 95 % 0.00 in /  0 mm
09:21 42.9 °F /  6.1 °C 41.6 °F /  5.3 °C 30.45 in /  1031 hPa ENE 3.9 mph /  6.3 km/h 6.9 mph /  11.1 km/h 95 % 0.00 in /  0 mm
09:26 43.3 °F /  6.3 °C 41.7 °F /  5.4 °C 30.45 in /  1031 hPa ENE 3.7 mph /  6 km/h 6.9 mph /  11.1 km/h 94 % 0.00 in /  0 mm
09:31 43.7 °F /  6.5 °C 41.8 °F /  5.4 °C 30.45 in /  1031 hPa NE 4.6 mph /  7.4 km/h 5.8 mph /  9.3 km/h 93 % 0.00 in /  0 mm
09:36 44.1 °F /  6.7 °C 41.9 °F /  5.5 °C 30.45 in /  1031 hPa ENE 3.8 mph /  6.1 km/h 7.0 mph /  11.3 km/h 92 % 0.00 in /  0 mm
09:40 44.4 °F /  6.9 °C 41.9 °F /  5.5 °C 30.45 in /  1031 hPa ENE 3.0 mph /  4.8 km/h 4.6 mph /  7.4 km/h 91 % 0.00 in /  0 mm
09:46 44.7 °F /  7.1 °C 42.2 °F /  5.7 °C 30.46 in /  1031.4 hPa ENE 5.0 mph /  8 km/h 8.0 mph /  12.9 km/h 91 % 0.00 in /  0 mm
09:51 45.2 °F /  7.3 °C 42.4 °F /  5.8 °C 30.46 in /  1031.4 hPa ENE 2.8 mph /  4.5 km/h 5.8 mph /  9.3 km/h 90 % 0.00 in /  0 mm
09:56 45.7 °F /  7.6 °C 42.3 °F /  5.7 °C 30.46 in /  1031.4 hPa ENE 2.8 mph /  4.5 km/h 6.9 mph /  11.1 km/h 88 % 0.00 in /  0 mm
10:00 46.1 °F /  7.8 °C 42.4 °F /  5.8 °C 30.46 in /  1031.4 hPa NE 4.3 mph /  6.9 km/h 8.1 mph /  13 km/h 87 % 0.00 in /  0 mm
10:05 46.3 °F /  7.9 °C 42.3 °F /  5.7 °C 30.46 in /  1031.4 hPa ENE 3.3 mph /  5.3 km/h 6.9 mph /  11.1 km/h 86 % 0.00 in /  0 mm
10:10 46.5 °F /  8.1 °C 42.2 °F /  5.7 °C 30.46 in /  1031.4 hPa ENE 5.2 mph /  8.4 km/h 6.9 mph /  11.1 km/h 85 % 0.00 in /  0 mm
10:13 46.6 °F /  8.1 °C 42.3 °F /  5.7 °C 30.46 in /  1031.4 hPa ENE 5.1 mph /  8.2 km/h 6.9 mph /  11.1 km/h 85 % 0.00 in /  0 mm
10:18 46.7 °F /  8.2 °C 42.1 °F /  5.6 °C 30.46 in /  1031.4 hPa ENE 4.0 mph /  6.4 km/h 6.9 mph /  11.1 km/h 84 % 0.00 in /  0 mm
10:23 46.6 °F /  8.1 °C 42.0 °F /  5.6 °C 30.46 in /  1031.4 hPa ENE 3.3 mph /  5.3 km/h 5.0 mph /  8 km/h 84 % 0.00 in /  0 mm
10:28 46.7 °F /  8.2 °C 42.1 °F /  5.6 °C 30.46 in /  1031.4 hPa ENE 4.9 mph /  7.9 km/h 8.1 mph /  13 km/h 84 % 0.00 in /  0 mm
10:33 46.7 °F /  8.2 °C 42.1 °F /  5.6 °C 30.46 in /  1031.4 hPa ENE 3.3 mph /  5.3 km/h 6.9 mph /  11.1 km/h 84 % 0.00 in /  0 mm
10:38 46.6 °F /  8.1 °C 42.0 °F /  5.6 °C 30.46 in /  1031.4 hPa ENE 3.7 mph /  6 km/h 5.0 mph /  8 km/h 84 % 0.00 in /  0 mm
10:43 46.7 °F /  8.2 °C 42.1 °F /  5.6 °C 30.46 in /  1031.4 hPa ENE 3.5 mph /  5.6 km/h 6.9 mph /  11.1 km/h 84 % 0.00 in /  0 mm
10:48 46.7 °F /  8.2 °C 42.1 °F /  5.6 °C 30.46 in /  1031.4 hPa ENE 3.5 mph /  5.6 km/h 6.9 mph /  11.1 km/h 84 % 0.00 in /  0 mm
10:53 46.7 °F /  8.2 °C 41.8 °F /  5.4 °C 30.45 in /  1031 hPa ENE 4.9 mph /  7.9 km/h 7.0 mph /  11.3 km/h 83 % 0.00 in /  0 mm
10:59 46.7 °F /  8.2 °C 41.8 °F /  5.4 °C 30.45 in /  1031 hPa NE 3.3 mph /  5.3 km/h 4.6 mph /  7.4 km/h 83 % 0.00 in /  0 mm
11:04 46.8 °F /  8.2 °C 41.9 °F /  5.5 °C 30.45 in /  1031 hPa ENE 4.1 mph /  6.6 km/h 6.9 mph /  11.1 km/h 83 % 0.00 in /  0 mm
11:09 46.7 °F /  8.2 °C 41.8 °F /  5.4 °C 30.45 in /  1031 hPa NE 3.2 mph /  5.1 km/h 5.0 mph /  8 km/h 83 % 0.00 in /  0 mm
11:14 46.7 °F /  8.2 °C 41.8 °F /  5.4 °C 30.45 in /  1031 hPa ENE 4.3 mph /  6.9 km/h 7.0 mph /  11.3 km/h 83 % 0.00 in /  0 mm
11:19 46.7 °F /  8.2 °C 41.8 °F /  5.4 °C 30.45 in /  1031 hPa NE 2.9 mph /  4.7 km/h 5.8 mph /  9.3 km/h 83 % 0.00 in /  0 mm
11:24 46.8 °F /  8.2 °C 41.9 °F /  5.5 °C 30.45 in /  1031 hPa East 2.5 mph /  4 km/h 4.6 mph /  7.4 km/h 83 % 0.00 in /  0 mm
11:29 46.9 °F /  8.3 °C 41.7 °F /  5.4 °C 30.45 in /  1031 hPa NE 1.8 mph /  2.9 km/h 4.6 mph /  7.4 km/h 82 % 0.00 in /  0 mm
11:34 46.9 °F /  8.3 °C 41.7 °F /  5.4 °C 30.45 in /  1031 hPa ENE 2.6 mph /  4.2 km/h 4.6 mph /  7.4 km/h 82 % 0.00 in /  0 mm
11:39 46.9 °F /  8.3 °C 41.7 °F /  5.4 °C 30.45 in /  1031 hPa East 3.1 mph /  5 km/h 4.6 mph /  7.4 km/h 82 % 0.00 in /  0 mm
11:44 47.0 °F /  8.3 °C 41.8 °F /  5.4 °C 30.45 in /  1031 hPa NE 1.5 mph /  2.4 km/h 3.5 mph /  5.6 km/h 82 % 0.00 in /  0 mm
11:49 47.0 °F /  8.3 °C 41.8 °F /  5.4 °C 30.45 in /  1031 hPa ENE 3.6 mph /  5.8 km/h 5.0 mph /  8 km/h 82 % 0.00 in /  0 mm
11:54 47.1 °F /  8.4 °C 41.6 °F /  5.3 °C 30.45 in /  1031 hPa ENE 3.8 mph /  6.1 km/h 6.9 mph /  11.1 km/h 81 % 0.00 in /  0 mm
11:59 47.2 °F /  8.4 °C 41.7 °F /  5.4 °C 30.44 in /  1030.7 hPa NE 4.0 mph /  6.4 km/h 5.8 mph /  9.3 km/h 81 % 0.00 in /  0 mm
12:04 47.3 °F /  8.5 °C 41.4 °F /  5.2 °C 30.44 in /  1030.7 hPa ENE 3.0 mph /  4.8 km/h 4.6 mph /  7.4 km/h 80 % 0.00 in /  0 mm
12:09 47.5 °F /  8.6 °C 41.6 °F /  5.3 °C 30.44 in /  1030.7 hPa ENE 3.2 mph /  5.1 km/h 4.0 mph /  6.4 km/h 80 % 0.00 in /  0 mm
12:14 47.7 °F /  8.7 °C 41.8 °F /  5.4 °C 30.44 in /  1030.7 hPa East 1.9 mph /  3.1 km/h 4.6 mph /  7.4 km/h 80 % 0.00 in /  0 mm
12:19 47.9 °F /  8.8 °C 42.0 °F /  5.6 °C 30.44 in /  1030.7 hPa NE 3.5 mph /  5.6 km/h 6.9 mph /  11.1 km/h 80 % 0.00 in /  0 mm
12:24 48.3 °F /  9.1 °C 42.7 °F /  5.9 °C 30.44 in /  1030.7 hPa ENE 1.7 mph /  2.7 km/h 4.6 mph /  7.4 km/h 81 % 0.00 in /  0 mm
12:29 48.5 °F /  9.2 °C 42.6 °F /  5.9 °C 30.44 in /  1030.7 hPa ENE 2.1 mph /  3.4 km/h 3.5 mph /  5.6 km/h 80 % 0.00 in /  0 mm
12:34 48.4 °F /  9.1 °C 42.5 °F /  5.8 °C 30.43 in /  1030.4 hPa NE 2.6 mph /  4.2 km/h 6.9 mph /  11.1 km/h 80 % 0.00 in /  0 mm
12:39 48.5 °F /  9.2 °C 42.6 °F /  5.9 °C 30.43 in /  1030.4 hPa ENE 1.6 mph /  2.6 km/h 3.5 mph /  5.6 km/h 80 % 0.00 in /  0 mm
12:44 48.5 °F /  9.2 °C 42.6 °F /  5.9 °C 30.44 in /  1030.7 hPa NE 2.3 mph /  3.7 km/h 4.6 mph /  7.4 km/h 80 % 0.00 in /  0 mm
12:49 48.5 °F /  9.2 °C 42.6 °F /  5.9 °C 30.43 in /  1030.4 hPa ENE 2.9 mph /  4.7 km/h 5.0 mph /  8 km/h 80 % 0.00 in /  0 mm
12:51 48.6 °F /  9.2 °C 42.7 °F /  5.9 °C 30.43 in /  1030.4 hPa NE 3.0 mph /  4.8 km/h 5.0 mph /  8 km/h 80 % 0.00 in /  0 mm
12:56 48.4 °F /  9.1 °C 42.5 °F /  5.8 °C 30.43 in /  1030.4 hPa ENE 5.0 mph /  8 km/h 7.0 mph /  11.3 km/h 80 % 0.00 in /  0 mm
13:01 48.3 °F /  9.1 °C 42.4 °F /  5.8 °C 30.43 in /  1030.4 hPa ENE 3.1 mph /  5 km/h 6.9 mph /  11.1 km/h 80 % 0.00 in /  0 mm
13:06 48.3 °F /  9.1 °C 42.7 °F /  5.9 °C 30.43 in /  1030.4 hPa ENE 2.6 mph /  4.2 km/h 3.5 mph /  5.6 km/h 81 % 0.00 in /  0 mm
13:11 48.2 °F /  9 °C 42.3 °F /  5.7 °C 30.43 in /  1030.4 hPa ENE 3.0 mph /  4.8 km/h 4.6 mph /  7.4 km/h 80 % 0.00 in /  0 mm
13:16 48.3 °F /  9.1 °C 42.7 °F /  5.9 °C 30.43 in /  1030.4 hPa ENE 2.9 mph /  4.7 km/h 3.5 mph /  5.6 km/h 81 % 0.00 in /  0 mm
13:21 48.4 °F /  9.1 °C 42.5 °F /  5.8 °C 30.43 in /  1030.4 hPa ENE 3.0 mph /  4.8 km/h 6.0 mph /  9.7 km/h 80 % 0.00 in /  0 mm
13:23 48.4 °F /  9.1 °C 42.5 °F /  5.8 °C 30.43 in /  1030.4 hPa ENE 2.7 mph /  4.3 km/h 4.0 mph /  6.4 km/h 80 % 0.00 in /  0 mm
13:28 48.5 °F /  9.2 °C 42.9 °F /  6.1 °C 30.42 in /  1030 hPa NE 2.6 mph /  4.2 km/h 5.0 mph /  8 km/h 81 % 0.00 in /  0 mm
13:33 48.5 °F /  9.2 °C 42.6 °F /  5.9 °C 30.42 in /  1030 hPa ENE 2.7 mph /  4.3 km/h 5.0 mph /  8 km/h 80 % 0.00 in /  0 mm
13:38 48.6 °F /  9.2 °C 43.0 °F /  6.1 °C 30.42 in /  1030 hPa NE 3.4 mph /  5.5 km/h 5.0 mph /  8 km/h 81 % 0.00 in /  0 mm
13:43 48.7 °F /  9.3 °C 42.8 °F /  6 °C 30.42 in /  1030 hPa NE 1.5 mph /  2.4 km/h 4.6 mph /  7.4 km/h 80 % 0.00 in /  0 mm
13:49 48.6 °F /  9.2 °C 42.7 °F /  5.9 °C 30.42 in /  1030 hPa ENE 5.0 mph /  8 km/h 5.0 mph /  8 km/h 80 % 0.00 in /  0 mm
13:54 48.5 °F /  9.2 °C 42.6 °F /  5.9 °C 30.42 in /  1030 hPa ENE 3.3 mph /  5.3 km/h 4.6 mph /  7.4 km/h 80 % 0.00 in /  0 mm
13:59 48.4 °F /  9.1 °C 42.5 °F /  5.8 °C 30.42 in /  1030 hPa East 4.7 mph /  7.6 km/h 6.0 mph /  9.7 km/h 80 % 0.00 in /  0 mm
14:04 48.3 °F /  9.1 °C 42.1 °F /  5.6 °C 30.42 in /  1030 hPa ENE 3.8 mph /  6.1 km/h 6.9 mph /  11.1 km/h 79 % 0.00 in /  0 mm
14:09 48.3 °F /  9.1 °C 42.4 °F /  5.8 °C 30.42 in /  1030 hPa ENE 2.0 mph /  3.2 km/h 4.6 mph /  7.4 km/h 80 % 0.00 in /  0 mm
14:14 48.2 °F /  9 °C 42.3 °F /  5.7 °C 30.42 in /  1030 hPa ENE 3.4 mph /  5.5 km/h 4.6 mph /  7.4 km/h 80 % 0.00 in /  0 mm
14:19 48.1 °F /  8.9 °C 41.9 °F /  5.5 °C 30.42 in /  1030 hPa ENE 4.9 mph /  7.9 km/h 6.9 mph /  11.1 km/h 79 % 0.00 in /  0 mm
14:24 48.0 °F /  8.9 °C 42.1 °F /  5.6 °C 30.42 in /  1030 hPa ENE 2.8 mph /  4.5 km/h 4.6 mph /  7.4 km/h 80 % 0.00 in /  0 mm
14:29 47.9 °F /  8.8 °C 42.0 °F /  5.6 °C 30.41 in /  1029.7 hPa East 4.4 mph /  7.1 km/h 5.8 mph /  9.3 km/h 80 % 0.00 in /  0 mm
14:32 47.9 °F /  8.8 °C 42.0 °F /  5.6 °C 30.41 in /  1029.7 hPa ENE 2.6 mph /  4.2 km/h 3.5 mph /  5.6 km/h 80 % 0.00 in /  0 mm
14:37 47.8 °F /  8.8 °C 41.9 °F /  5.5 °C 30.42 in /  1030 hPa East 3.2 mph /  5.1 km/h 4.6 mph /  7.4 km/h 80 % 0.00 in /  0 mm
14:42 47.8 °F /  8.8 °C 41.9 °F /  5.5 °C 30.42 in /  1030 hPa East 2.9 mph /  4.7 km/h 4.6 mph /  7.4 km/h 80 % 0.00 in /  0 mm
14:47 47.6 °F /  8.7 °C 41.7 °F /  5.4 °C 30.42 in /  1030 hPa ENE 2.8 mph /  4.5 km/h 4.6 mph /  7.4 km/h 80 % 0.00 in /  0 mm
14:52 47.5 °F /  8.6 °C 42.0 °F /  5.6 °C 30.42 in /  1030 hPa ENE 2.0 mph /  3.2 km/h 4.6 mph /  7.4 km/h 81 % 0.00 in /  0 mm
14:57 47.4 °F /  8.6 °C 41.9 °F /  5.5 °C 30.42 in /  1030 hPa East 3.6 mph /  5.8 km/h 5.0 mph /  8 km/h 81 % 0.00 in /  0 mm
15:02 47.2 °F /  8.4 °C 41.7 °F /  5.4 °C 30.43 in /  1030.4 hPa East 2.2 mph /  3.5 km/h 4.6 mph /  7.4 km/h 81 % 0.00 in /  0 mm
15:07 47.0 °F /  8.3 °C 41.8 °F /  5.4 °C 30.43 in /  1030.4 hPa East 0.6 mph /  1 km/h 2.3 mph /  3.7 km/h 82 % 0.00 in /  0 mm
15:12 46.9 °F /  8.3 °C 41.7 °F /  5.4 °C 30.43 in /  1030.4 hPa East 1.8 mph /  2.9 km/h 3.5 mph /  5.6 km/h 82 % 0.00 in /  0 mm
15:17 46.8 °F /  8.2 °C 41.6 °F /  5.3 °C 30.43 in /  1030.4 hPa East 1.1 mph /  1.8 km/h 3.5 mph /  5.6 km/h 82 % 0.00 in /  0 mm
15:22 46.7 °F /  8.2 °C 41.5 °F /  5.3 °C 30.43 in /  1030.4 hPa East 1.6 mph /  2.6 km/h 2.3 mph /  3.7 km/h 82 % 0.00 in /  0 mm
15:28 46.6 °F /  8.1 °C 41.4 °F /  5.2 °C 30.43 in /  1030.4 hPa East 0.7 mph /  1.1 km/h 1.2 mph /  1.9 km/h 82 % 0.00 in /  0 mm
15:33 46.6 °F /  8.1 °C 41.7 °F /  5.4 °C 30.43 in /  1030.4 hPa Calm     83 % 0.00 in /  0 mm
15:38 46.6 °F /  8.1 °C 41.7 °F /  5.4 °C 30.43 in /  1030.4 hPa Calm   1.2 mph /  1.9 km/h 83 % 0.00 in /  0 mm
15:43 46.5 °F /  8.1 °C 41.3 °F /  5.2 °C 30.43 in /  1030.4 hPa Calm     82 % 0.00 in /  0 mm
15:48 46.5 °F /  8.1 °C 41.0 °F /  5 °C 30.43 in /  1030.4 hPa SSE 1.4 mph /  2.3 km/h 4.0 mph /  6.4 km/h 81 % 0.00 in /  0 mm
15:53 46.4 °F /  8 °C 40.9 °F /  4.9 °C 30.43 in /  1030.4 hPa SSE 0.8 mph /  1.3 km/h 2.3 mph /  3.7 km/h 81 % 0.00 in /  0 mm
15:58 46.4 °F /  8 °C 40.6 °F /  4.8 °C 30.43 in /  1030.4 hPa SSE 0.1 mph /  0.2 km/h 1.2 mph /  1.9 km/h 80 % 0.00 in /  0 mm
16:03 46.4 °F /  8 °C 40.6 °F /  4.8 °C 30.43 in /  1030.4 hPa SSE 0.5 mph /  0.8 km/h 2.3 mph /  3.7 km/h 80 % 0.00 in /  0 mm
16:08 46.5 °F /  8.1 °C 40.7 °F /  4.8 °C 30.44 in /  1030.7 hPa SSE 2.4 mph /  3.9 km/h 3.5 mph /  5.6 km/h 80 % 0.00 in /  0 mm
16:13 46.5 °F /  8.1 °C 40.7 °F /  4.8 °C 30.44 in /  1030.7 hPa SE 3.6 mph /  5.8 km/h 4.6 mph /  7.4 km/h 80 % 0.00 in /  0 mm
16:18 46.6 °F /  8.1 °C 40.8 °F /  4.9 °C 30.44 in /  1030.7 hPa SSE 2.6 mph /  4.2 km/h 3.5 mph /  5.6 km/h 80 % 0.00 in /  0 mm
16:23 46.6 °F /  8.1 °C 40.8 °F /  4.9 °C 30.44 in /  1030.7 hPa SE 1.2 mph /  1.9 km/h 3.5 mph /  5.6 km/h 80 % 0.00 in /  0 mm
16:28 46.6 °F /  8.1 °C 40.4 °F /  4.7 °C 30.44 in /  1030.7 hPa SSE 0.1 mph /  0.2 km/h 1.2 mph /  1.9 km/h 79 % 0.00 in /  0 mm
16:33 46.6 °F /  8.1 °C 40.4 °F /  4.7 °C 30.44 in /  1030.7 hPa Calm   3.5 mph /  5.6 km/h 79 % 0.00 in /  0 mm
16:38 46.5 °F /  8.1 °C 40.3 °F /  4.6 °C 30.43 in /  1030.4 hPa SE 1.2 mph /  1.9 km/h 3.5 mph /  5.6 km/h 79 % 0.00 in /  0 mm
16:43 46.5 °F /  8.1 °C 40.7 °F /  4.8 °C 30.43 in /  1030.4 hPa SE 0.4 mph /  0.6 km/h 2.0 mph /  3.2 km/h 80 % 0.00 in /  0 mm
16:48 46.4 °F /  8 °C 40.6 °F /  4.8 °C 30.43 in /  1030.4 hPa SE 1.2 mph /  1.9 km/h 2.3 mph /  3.7 km/h 80 % 0.00 in /  0 mm
16:53 46.2 °F /  7.9 °C 40.4 °F /  4.7 °C 30.43 in /  1030.4 hPa SE 0.2 mph /  0.3 km/h 1.2 mph /  1.9 km/h 80 % 0.00 in /  0 mm
16:58 46.1 °F /  7.8 °C 40.3 °F /  4.6 °C 30.43 in /  1030.4 hPa Calm     80 % 0.00 in /  0 mm
17:03 45.9 °F /  7.7 °C 40.1 °F /  4.5 °C 30.44 in /  1030.7 hPa SE 0.4 mph /  0.6 km/h 1.2 mph /  1.9 km/h 80 % 0.00 in /  0 mm
17:08 45.8 °F /  7.7 °C 40.0 °F /  4.4 °C 30.43 in /  1030.4 hPa SE 0.3 mph /  0.5 km/h 2.3 mph /  3.7 km/h 80 % 0.00 in /  0 mm
17:14 45.6 °F /  7.6 °C 40.1 °F /  4.5 °C 30.43 in /  1030.4 hPa SE 1.1 mph /  1.8 km/h 2.3 mph /  3.7 km/h 81 % 0.00 in /  0 mm
17:19 45.4 °F /  7.4 °C 39.9 °F /  4.4 °C 30.43 in /  1030.4 hPa SE 1.9 mph /  3.1 km/h 3.5 mph /  5.6 km/h 81 % 0.00 in /  0 mm
17:24 45.2 °F /  7.3 °C 39.7 °F /  4.3 °C 30.43 in /  1030.4 hPa SE 1.8 mph /  2.9 km/h 3.5 mph /  5.6 km/h 81 % 0.00 in /  0 mm
17:29 45.1 °F /  7.3 °C 39.6 °F /  4.2 °C 30.42 in /  1030 hPa SE 1.4 mph /  2.3 km/h 3.5 mph /  5.6 km/h 81 % 0.00 in /  0 mm
17:34 44.9 °F /  7.2 °C 39.7 °F /  4.3 °C 30.42 in /  1030 hPa SE 1.6 mph /  2.6 km/h 3.5 mph /  5.6 km/h 82 % 0.00 in /  0 mm
17:39 44.7 °F /  7.1 °C 39.5 °F /  4.2 °C 30.42 in /  1030 hPa SE 0.2 mph /  0.3 km/h 3.0 mph /  4.8 km/h 82 % 0.00 in /  0 mm
17:44 44.6 °F /  7 °C 39.4 °F /  4.1 °C 30.42 in /  1030 hPa SE 0.6 mph /  1 km/h 3.5 mph /  5.6 km/h 82 % 0.00 in /  0 mm
17:49 44.4 °F /  6.9 °C 39.6 °F /  4.2 °C 30.42 in /  1030 hPa SE 0.5 mph /  0.8 km/h 1.2 mph /  1.9 km/h 83 % 0.00 in /  0 mm
17:54 44.3 °F /  6.8 °C 39.5 °F /  4.2 °C 30.42 in /  1030 hPa SE 0.5 mph /  0.8 km/h 2.3 mph /  3.7 km/h 83 % 0.00 in /  0 mm
17:59 44.2 °F /  6.8 °C 39.4 °F /  4.1 °C 30.42 in /  1030 hPa Calm   2.3 mph /  3.7 km/h 83 % 0.00 in /  0 mm
18:04 44.0 °F /  6.7 °C 39.2 °F /  4 °C 30.42 in /  1030 hPa SE 0.1 mph /  0.2 km/h 2.3 mph /  3.7 km/h 83 % 0.00 in /  0 mm
18:09 44.0 °F /  6.7 °C 39.2 °F /  4 °C 30.42 in /  1030 hPa SE 0.1 mph /  0.2 km/h 1.2 mph /  1.9 km/h 83 % 0.00 in /  0 mm
18:14 43.8 °F /  6.6 °C 39.0 °F /  3.9 °C 30.42 in /  1030 hPa SE 2.2 mph /  3.5 km/h 3.5 mph /  5.6 km/h 83 % 0.00 in /  0 mm
18:19 43.7 °F /  6.5 °C 39.2 °F /  4 °C 30.42 in /  1030 hPa SE 1.9 mph /  3.1 km/h 3.5 mph /  5.6 km/h 84 % 0.00 in /  0 mm
18:24 43.6 °F /  6.4 °C 39.1 °F /  3.9 °C 30.42 in /  1030 hPa SE 1.1 mph /  1.8 km/h 3.5 mph /  5.6 km/h 84 % 0.00 in /  0 mm
18:29 43.5 °F /  6.4 °C 39.0 °F /  3.9 °C 30.42 in /  1030 hPa SE 1.7 mph /  2.7 km/h 3.5 mph /  5.6 km/h 84 % 0.00 in /  0 mm
18:34 43.5 °F /  6.4 °C 39.0 °F /  3.9 °C 30.42 in /  1030 hPa Calm     84 % 0.00 in /  0 mm
18:39 43.4 °F /  6.3 °C 38.9 °F /  3.8 °C 30.43 in /  1030.4 hPa SE 1.0 mph /  1.6 km/h 3.5 mph /  5.6 km/h 84 % 0.00 in /  0 mm
18:44 43.3 °F /  6.3 °C 38.8 °F /  3.8 °C 30.43 in /  1030.4 hPa SE 0.4 mph /  0.6 km/h 2.3 mph /  3.7 km/h 84 % 0.00 in /  0 mm
18:49 43.2 °F /  6.2 °C 38.7 °F /  3.7 °C 30.43 in /  1030.4 hPa Calm   1.2 mph /  1.9 km/h 84 % 0.00 in /  0 mm
18:54 43.1 °F /  6.2 °C 38.6 °F /  3.7 °C 30.43 in /  1030.4 hPa Calm     84 % 0.00 in /  0 mm
18:59 43.0 °F /  6.1 °C 38.5 °F /  3.6 °C 30.44 in /  1030.7 hPa Calm     84 % 0.00 in /  0 mm
19:05 42.9 °F /  6.1 °C 38.4 °F /  3.6 °C 30.44 in /  1030.7 hPa Calm     84 % 0.00 in /  0 mm
19:10 42.8 °F /  6 °C 38.3 °F /  3.5 °C 30.44 in /  1030.7 hPa Calm     84 % 0.00 in /  0 mm
19:15 42.7 °F /  5.9 °C 38.2 °F /  3.4 °C 30.44 in /  1030.7 hPa Calm     84 % 0.00 in /  0 mm
19:20 42.5 °F /  5.8 °C 38.0 °F /  3.3 °C 30.44 in /  1030.7 hPa Calm     84 % 0.00 in /  0 mm
19:22 42.4 °F /  5.8 °C 37.9 °F /  3.3 °C 30.45 in /  1031 hPa Calm     84 % 0.00 in /  0 mm
19:27 42.2 °F /  5.7 °C 37.7 °F /  3.2 °C 30.44 in /  1030.7 hPa Calm     84 % 0.00 in /  0 mm
19:32 41.9 °F /  5.5 °C 37.4 °F /  3 °C 30.44 in /  1030.7 hPa Calm     84 % 0.00 in /  0 mm
19:37 41.6 °F /  5.3 °C 37.1 °F /  2.8 °C 30.44 in /  1030.7 hPa Calm     84 % 0.00 in /  0 mm
19:42 41.4 °F /  5.2 °C 37.2 °F /  2.9 °C 30.44 in /  1030.7 hPa Calm     85 % 0.00 in /  0 mm
19:47 41.2 °F /  5.1 °C 37.0 °F /  2.8 °C 30.45 in /  1031 hPa Calm     85 % 0.00 in /  0 mm
19:52 40.8 °F /  4.9 °C 36.6 °F /  2.6 °C 30.44 in /  1030.7 hPa Calm     85 % 0.00 in /  0 mm
19:57 40.6 °F /  4.8 °C 36.7 °F /  2.6 °C 30.43 in /  1030.4 hPa Calm     86 % 0.00 in /  0 mm
20:02 40.4 °F /  4.7 °C 36.5 °F /  2.5 °C 30.43 in /  1030.4 hPa SE 0.2 mph /  0.3 km/h 1.2 mph /  1.9 km/h 86 % 0.00 in /  0 mm
20:07 40.2 °F /  4.6 °C 36.3 °F /  2.4 °C 30.43 in /  1030.4 hPa SE 0.3 mph /  0.5 km/h 1.2 mph /  1.9 km/h 86 % 0.00 in /  0 mm
20:12 40.1 °F /  4.5 °C 36.2 °F /  2.3 °C 30.43 in /  1030.4 hPa SE 0.2 mph /  0.3 km/h 1.2 mph /  1.9 km/h 86 % 0.00 in /  0 mm
20:17 40.0 °F /  4.4 °C 36.4 °F /  2.4 °C 30.44 in /  1030.7 hPa SE 0.4 mph /  0.6 km/h 1.2 mph /  1.9 km/h 87 % 0.00 in /  0 mm
20:22 39.9 °F /  4.4 °C 36.3 °F /  2.4 °C 30.44 in /  1030.7 hPa Calm   1.2 mph /  1.9 km/h 87 % 0.00 in /  0 mm
20:27 39.8 °F /  4.3 °C 36.2 °F /  2.3 °C 30.44 in /  1030.7 hPa Calm   1.2 mph /  1.9 km/h 87 % 0.00 in /  0 mm
20:32 39.8 °F /  4.3 °C 36.5 °F /  2.5 °C 30.44 in /  1030.7 hPa SE 0.6 mph /  1 km/h 2.3 mph /  3.7 km/h 88 % 0.00 in /  0 mm
20:37 39.8 °F /  4.3 °C 36.5 °F /  2.5 °C 30.44 in /  1030.7 hPa Calm   1.2 mph /  1.9 km/h 88 % 0.00 in /  0 mm
20:42 40.0 °F /  4.4 °C 37.3 °F /  2.9 °C 30.43 in /  1030.4 hPa SE 1.5 mph /  2.4 km/h 3.5 mph /  5.6 km/h 90 % 0.00 in /  0 mm
20:47 40.3 °F /  4.6 °C 37.6 °F /  3.1 °C 30.44 in /  1030.7 hPa SE 0.3 mph /  0.5 km/h 2.3 mph /  3.7 km/h 90 % 0.00 in /  0 mm
20:52 40.4 °F /  4.7 °C 38.0 °F /  3.3 °C 30.44 in /  1030.7 hPa SE 0.7 mph /  1.1 km/h 2.3 mph /  3.7 km/h 91 % 0.00 in /  0 mm
20:57 40.6 °F /  4.8 °C 38.2 °F /  3.4 °C 30.43 in /  1030.4 hPa SE 1.0 mph /  1.6 km/h 2.3 mph /  3.7 km/h 91 % 0.00 in /  0 mm
21:02 40.7 °F /  4.8 °C 38.3 °F /  3.5 °C 30.43 in /  1030.4 hPa SE 0.8 mph /  1.3 km/h 3.0 mph /  4.8 km/h 91 % 0.00 in /  0 mm
21:07 40.9 °F /  4.9 °C 38.5 °F /  3.6 °C 30.44 in /  1030.7 hPa SE 0.6 mph /  1 km/h 2.0 mph /  3.2 km/h 91 % 0.00 in /  0 mm
21:13 41.2 °F /  5.1 °C 38.8 °F /  3.8 °C 30.44 in /  1030.7 hPa Calm     91 % 0.00 in /  0 mm
21:14 41.2 °F /  5.1 °C 38.8 °F /  3.8 °C 30.44 in /  1030.7 hPa Calm     91 % 0.00 in /  0 mm
21:19 41.4 °F /  5.2 °C 39.0 °F /  3.9 °C 30.44 in /  1030.7 hPa Calm     91 % 0.00 in /  0 mm
21:24 41.5 °F /  5.3 °C 38.8 °F /  3.8 °C 30.45 in /  1031 hPa Calm     90 % 0.00 in /  0 mm
21:29 41.7 °F /  5.4 °C 39.0 °F /  3.9 °C 30.44 in /  1030.7 hPa Calm   1.2 mph /  1.9 km/h 90 % 0.00 in /  0 mm
21:34 41.9 °F /  5.5 °C 39.2 °F /  4 °C 30.44 in /  1030.7 hPa SE 0.3 mph /  0.5 km/h 1.2 mph /  1.9 km/h 90 % 0.00 in /  0 mm
21:39 42.1 °F /  5.6 °C 39.4 °F /  4.1 °C 30.44 in /  1030.7 hPa Calm     90 % 0.00 in /  0 mm
21:44 42.2 °F /  5.7 °C 39.2 °F /  4 °C 30.44 in /  1030.7 hPa SE 0.4 mph /  0.6 km/h 1.2 mph /  1.9 km/h 89 % 0.00 in /  0 mm
21:49 42.3 °F /  5.7 °C 39.3 °F /  4.1 °C 30.44 in /  1030.7 hPa SE 0.5 mph /  0.8 km/h 2.0 mph /  3.2 km/h 89 % 0.00 in /  0 mm
21:54 42.5 °F /  5.8 °C 39.5 °F /  4.2 °C 30.43 in /  1030.4 hPa Calm   1.2 mph /  1.9 km/h 89 % 0.00 in /  0 mm
21:59 42.6 °F /  5.9 °C 39.3 °F /  4.1 °C 30.43 in /  1030.4 hPa Calm     88 % 0.00 in /  0 mm
22:04 42.7 °F /  5.9 °C 39.4 °F /  4.1 °C 30.44 in /  1030.7 hPa Calm     88 % 0.00 in /  0 mm
22:09 42.8 °F /  6 °C 39.5 °F /  4.2 °C 30.44 in /  1030.7 hPa Calm     88 % 0.00 in /  0 mm
22:14 42.9 °F /  6.1 °C 39.6 °F /  4.2 °C 30.44 in /  1030.7 hPa Calm     88 % 0.00 in /  0 mm
22:19 42.9 °F /  6.1 °C 39.6 °F /  4.2 °C 30.44 in /  1030.7 hPa Calm     88 % 0.00 in /  0 mm
22:22 43.0 °F /  6.1 °C 39.4 °F /  4.1 °C 30.43 in /  1030.4 hPa Calm   1.2 mph /  1.9 km/h 87 % 0.00 in /  0 mm
22:27 43.1 °F /  6.2 °C 39.5 °F /  4.2 °C 30.44 in /  1030.7 hPa SE 0.6 mph /  1 km/h 2.3 mph /  3.7 km/h 87 % 0.00 in /  0 mm
22:32 43.1 °F /  6.2 °C 39.5 °F /  4.2 °C 30.44 in /  1030.7 hPa Calm     87 % 0.00 in /  0 mm
22:42 43.3 °F /  6.3 °C 39.7 °F /  4.3 °C 30.44 in /  1030.7 hPa Calm   2.3 mph /  3.7 km/h 87 % 0.00 in /  0 mm
22:47 43.4 °F /  6.3 °C 39.8 °F /  4.3 °C 30.44 in /  1030.7 hPa Calm     87 % 0.00 in /  0 mm
22:52 43.5 °F /  6.4 °C 39.6 °F /  4.2 °C 30.43 in /  1030.4 hPa Calm   1.2 mph /  1.9 km/h 86 % 0.00 in /  0 mm
22:57 43.5 °F /  6.4 °C 39.6 °F /  4.2 °C 30.44 in /  1030.7 hPa Calm   1.2 mph /  1.9 km/h 86 % 0.00 in /  0 mm
23:03 43.6 °F /  6.4 °C 39.7 °F /  4.3 °C 30.43 in /  1030.4 hPa Calm     86 % 0.00 in /  0 mm
23:07 43.6 °F /  6.4 °C 39.7 °F /  4.3 °C 30.43 in /  1030.4 hPa SE 0.1 mph /  0.2 km/h   86 % 0.00 in /  0 mm
23:13 43.7 °F /  6.5 °C 39.8 °F /  4.3 °C 30.43 in /  1030.4 hPa Calm     86 % 0.00 in /  0 mm
23:18 43.7 °F /  6.5 °C 39.8 °F /  4.3 °C 30.43 in /  1030.4 hPa Calm     86 % 0.00 in /  0 mm
23:23 43.8 °F /  6.6 °C 39.9 °F /  4.4 °C 30.43 in /  1030.4 hPa Calm     86 % 0.00 in /  0 mm
23:28 43.8 °F /  6.6 °C 39.6 °F /  4.2 °C 30.42 in /  1030 hPa Calm     85 % 0.00 in /  0 mm
23:33 43.9 °F /  6.6 °C 39.7 °F /  4.3 °C 30.42 in /  1030 hPa SE 2.0 mph /  3.2 km/h 4.0 mph /  6.4 km/h 85 % 0.00 in /  0 mm
23:38 43.9 °F /  6.6 °C 39.7 °F /  4.3 °C 30.42 in /  1030 hPa SE 2.0 mph /  3.2 km/h 3.5 mph /  5.6 km/h 85 % 0.00 in /  0 mm
23:43 43.9 °F /  6.6 °C 39.7 °F /  4.3 °C 30.42 in /  1030 hPa SE 0.6 mph /  1 km/h 2.3 mph /  3.7 km/h 85 % 0.00 in /  0 mm
23:48 44.0 °F /  6.7 °C 39.8 °F /  4.3 °C 30.42 in /  1030 hPa SE 0.7 mph /  1.1 km/h 2.3 mph /  3.7 km/h 85 % 0.00 in /  0 mm
23:53 44.0 °F /  6.7 °C 39.8 °F /  4.3 °C 30.42 in /  1030 hPa SE 1.0 mph /  1.6 km/h 2.3 mph /  3.7 km/h 85 % 0.00 in /  0 mm
23:57 44.0 °F /  6.7 °C 39.5 °F /  4.2 °C 30.41 in /  1029.7 hPa Calm   1.0 mph /  1.6 km/h 84 % 0.00 in /  0 mm
Crab Meadow Weather
Compliments of Weather Underground - 3 mb

Script developed by  Jim McMurry - jmcmurry@mwt.net Adapted for the template by  Wim van der Kuil - Leuven-Template.eu

Astronomy: February 1865 is the only month recorded in history not to have a full moon.